createdAt,value
2023-05-23T00:00:05.937Z,19.32
2023-05-23T00:02:39.499Z,19.34
2023-05-23T00:05:07.929Z,19.06
2023-05-23T00:07:35.236Z,19.25
2023-05-23T00:10:04.929Z,19.54
2023-05-23T00:12:32.498Z,19.09
2023-05-23T00:14:59.903Z,19.27
2023-05-23T00:17:27.287Z,19.28
2023-05-23T00:19:54.756Z,19.30
2023-05-23T00:22:22.198Z,19.40
2023-05-23T00:24:49.540Z,18.97
2023-05-23T00:27:18.698Z,19.07
2023-05-23T00:29:46.034Z,19.24
2023-05-23T00:32:13.364Z,19.46
2023-05-23T00:34:40.774Z,19.63
2023-05-23T00:37:08.097Z,19.35
2023-05-23T00:39:35.461Z,19.65
2023-05-23T00:42:05.168Z,19.73
2023-05-23T00:44:33.893Z,19.30
2023-05-23T00:47:01.624Z,19.68
2023-05-23T00:49:29.580Z,19.09
2023-05-23T00:51:56.916Z,19.26
2023-05-23T00:54:28.448Z,19.07
2023-05-23T00:56:55.925Z,19.43
2023-05-23T00:59:24.934Z,19.38
2023-05-23T01:01:55.907Z,19.40
2023-05-23T01:04:23.723Z,19.41
2023-05-23T01:06:51.147Z,19.29
2023-05-23T01:09:19.440Z,19.02
2023-05-23T01:11:56.698Z,19.35
2023-05-23T01:14:32.491Z,19.25
2023-05-23T01:17:10.974Z,19.06
2023-05-23T01:19:56.020Z,19.50
2023-05-23T01:22:33.308Z,19.26
2023-05-23T01:25:10.836Z,19.46
2023-05-23T01:27:48.323Z,19.35
2023-05-23T01:30:18.836Z,19.36
2023-05-23T01:32:50.688Z,19.05
2023-05-23T01:35:22.406Z,19.29
2023-05-23T01:37:51.398Z,19.25
2023-05-23T01:40:18.722Z,19.27
2023-05-23T01:42:47.999Z,19.37
2023-05-23T01:45:16.391Z,19.36
2023-05-23T01:47:44.530Z,19.23
2023-05-23T01:50:12.423Z,19.38
2023-05-23T01:52:40.092Z,19.27
2023-05-23T01:55:09.410Z,19.34
2023-05-23T01:57:38.505Z,19.22
2023-05-23T02:00:08.920Z,19.17
2023-05-23T02:02:42.590Z,19.41
2023-05-23T02:05:10.798Z,19.10
2023-05-23T02:07:38.109Z,19.20
2023-05-23T02:10:09.015Z,19.34
2023-05-23T02:12:36.434Z,19.39
2023-05-23T02:15:04.285Z,19.29
2023-05-23T02:17:33.339Z,19.09
2023-05-23T02:20:00.694Z,19.30
2023-05-23T02:22:28.069Z,19.50
2023-05-23T02:24:55.457Z,19.31
2023-05-23T02:27:23.892Z,19.01
2023-05-23T02:29:51.261Z,19.22
2023-05-23T02:32:18.600Z,19.33
2023-05-23T02:34:47.227Z,19.29
2023-05-23T02:37:14.644Z,19.16
2023-05-23T02:39:42.949Z,19.40
2023-05-23T02:42:10.372Z,19.34
2023-05-23T02:44:37.932Z,19.39
2023-05-23T02:47:05.713Z,19.02
2023-05-23T02:49:34.351Z,19.10
2023-05-23T02:52:03.044Z,18.85
2023-05-23T02:54:30.409Z,19.26
2023-05-23T02:56:57.777Z,19.48
2023-05-23T02:59:25.301Z,19.48
2023-05-23T03:01:52.725Z,19.05
2023-05-23T03:04:20.059Z,18.92
2023-05-23T03:06:47.408Z,19.05
2023-05-23T03:09:16.505Z,19.23
2023-05-23T03:11:43.918Z,19.12
2023-05-23T03:14:12.271Z,19.45
2023-05-23T03:16:40.298Z,18.88
2023-05-23T03:19:08.281Z,18.70
2023-05-23T03:21:35.976Z,18.64
2023-05-23T03:24:03.514Z,18.84
2023-05-23T03:26:32.511Z,18.53
2023-05-23T03:28:59.817Z,18.67
2023-05-23T03:31:27.141Z,18.77
2023-05-23T03:33:54.801Z,18.63
2023-05-23T03:36:22.268Z,18.40
2023-05-23T03:38:49.647Z,18.58
2023-05-23T03:41:17.496Z,18.55
2023-05-23T03:43:46.515Z,18.36
2023-05-23T03:46:14.078Z,18.50
2023-05-23T03:48:42.247Z,18.40
2023-05-23T03:51:09.684Z,18.72
2023-05-23T03:53:37.284Z,18.43
2023-05-23T03:56:05.620Z,18.68
2023-05-23T03:58:33.013Z,18.61
2023-05-23T04:01:06.997Z,18.83
2023-05-23T04:03:34.600Z,18.55
2023-05-23T04:06:04.314Z,18.48
2023-05-23T04:08:32.209Z,18.83
2023-05-23T04:11:00.236Z,18.49
2023-05-23T04:13:28.343Z,18.17
2023-05-23T04:15:55.718Z,18.46
2023-05-23T04:18:24.567Z,18.06
2023-05-23T04:20:52.044Z,17.96
2023-05-23T04:23:19.809Z,18.08
2023-05-23T04:25:52.220Z,18.10
2023-05-23T04:28:26.385Z,18.23
2023-05-23T04:30:54.038Z,18.01
2023-05-23T04:33:26.340Z,17.75
2023-05-23T04:35:53.737Z,18.08
2023-05-23T04:38:21.046Z,18.00
2023-05-23T04:40:48.899Z,18.30
2023-05-23T04:43:36.276Z,18.28
2023-05-23T04:46:15.323Z,18.18
2023-05-23T04:48:46.126Z,18.55
2023-05-23T04:51:16.817Z,18.59
2023-05-23T04:53:52.347Z,18.51
2023-05-23T04:56:21.851Z,18.47
2023-05-23T04:58:49.719Z,17.93
2023-05-23T05:01:17.893Z,18.03
2023-05-23T05:03:47.054Z,17.83
2023-05-23T05:06:14.694Z,17.95
2023-05-23T05:08:42.787Z,17.48
2023-05-23T05:11:11.235Z,17.54
2023-05-23T05:13:39.130Z,17.79
2023-05-23T05:16:07.069Z,17.61
2023-05-23T05:18:36.160Z,17.48
2023-05-23T05:21:04.968Z,17.81
2023-05-23T05:23:32.276Z,17.51
2023-05-23T05:26:00.457Z,17.45
2023-05-23T05:28:28.207Z,17.86
2023-05-23T05:30:55.779Z,17.51
2023-05-23T05:33:23.821Z,17.05
2023-05-23T05:35:57.422Z,17.29
2023-05-23T05:38:26.104Z,17.44
2023-05-23T05:40:53.462Z,17.12
2023-05-23T05:43:21.958Z,16.89
2023-05-23T05:45:49.313Z,17.29
2023-05-23T05:48:16.693Z,17.00
2023-05-23T05:50:44.496Z,17.47
2023-05-23T05:53:12.142Z,17.68
2023-05-23T05:55:41.226Z,17.04
2023-05-23T05:58:08.600Z,16.70
2023-05-23T06:00:56.312Z,16.65
2023-05-23T06:03:23.802Z,16.65
2023-05-23T06:05:55.790Z,16.63
2023-05-23T06:08:23.567Z,16.75
2023-05-23T06:10:52.429Z,16.87
2023-05-23T06:13:19.964Z,16.86
2023-05-23T06:15:52.295Z,17.28
2023-05-23T06:18:20.039Z,16.81
2023-05-23T06:20:47.826Z,16.57
2023-05-23T06:23:17.135Z,17.26
2023-05-23T06:25:45.988Z,17.14
2023-05-23T06:28:14.887Z,17.10
2023-05-23T06:30:42.422Z,16.55
2023-05-23T06:33:10.406Z,16.98
2023-05-23T06:35:37.732Z,16.98
2023-05-23T06:38:05.171Z,16.82
2023-05-23T06:40:32.560Z,17.00
2023-05-23T06:42:59.974Z,16.99
2023-05-23T06:45:40.142Z,16.72
2023-05-23T06:48:07.644Z,17.25
2023-05-23T06:50:37.055Z,17.15
2023-05-23T06:53:04.894Z,16.84
2023-05-23T06:55:33.486Z,17.00
2023-05-23T06:58:01.321Z,17.21
2023-05-23T07:00:28.991Z,17.21
2023-05-23T07:03:08.411Z,16.94
2023-05-23T07:05:37.019Z,17.09
2023-05-23T07:08:05.916Z,17.28
2023-05-23T07:10:33.366Z,17.43
2023-05-23T07:13:06.628Z,16.78
2023-05-23T07:15:34.248Z,16.33
2023-05-23T07:18:10.143Z,16.64
2023-05-23T07:20:38.017Z,17.01
2023-05-23T07:23:13.287Z,17.20
2023-05-23T07:25:47.069Z,17.16
2023-05-23T07:28:27.105Z,17.21
2023-05-23T07:30:55.822Z,16.97
2023-05-23T07:33:24.641Z,16.49
2023-05-23T07:35:53.864Z,16.72
2023-05-23T07:38:21.251Z,16.91
2023-05-23T07:40:58.888Z,17.11
2023-05-23T07:43:34.951Z,16.73
2023-05-23T07:46:02.452Z,16.35
2023-05-23T07:48:31.211Z,16.08
2023-05-23T07:50:59.849Z,15.96
2023-05-23T07:53:27.646Z,16.46
2023-05-23T07:56:00.927Z,16.50
2023-05-23T07:58:36.855Z,16.31
2023-05-23T08:01:04.196Z,16.65
2023-05-23T08:03:51.342Z,16.36
2023-05-23T08:06:25.150Z,16.52
2023-05-23T08:08:53.002Z,16.15
2023-05-23T08:11:20.311Z,16.20
2023-05-23T08:13:51.223Z,15.98
2023-05-23T08:16:37.283Z,15.56
2023-05-23T08:19:09.314Z,15.81
2023-05-23T08:21:36.614Z,16.09
2023-05-23T08:24:04.188Z,15.74
2023-05-23T08:26:32.040Z,15.63
2023-05-23T08:28:59.345Z,15.25
2023-05-23T08:31:26.754Z,15.64
2023-05-23T08:33:54.603Z,15.82
2023-05-23T08:36:23.443Z,15.71
2023-05-23T08:38:51.393Z,15.83
2023-05-23T08:41:25.759Z,15.90
2023-05-23T08:43:58.824Z,16.31
2023-05-23T08:46:32.229Z,16.23
2023-05-23T08:49:00.425Z,16.32
2023-05-23T08:51:31.922Z,16.59
2023-05-23T08:54:04.144Z,16.09
2023-05-23T08:56:31.794Z,16.07
2023-05-23T08:58:59.219Z,16.41
2023-05-23T09:01:28.021Z,16.22
2023-05-23T09:03:57.866Z,16.72
2023-05-23T09:06:30.910Z,16.25
2023-05-23T09:08:58.891Z,16.19
2023-05-23T09:11:26.726Z,16.14
2023-05-23T09:13:54.123Z,15.89
2023-05-23T09:16:23.025Z,16.40
2023-05-23T09:18:57.303Z,15.98
2023-05-23T09:21:25.794Z,16.28
2023-05-23T09:24:07.354Z,16.14
2023-05-23T09:26:35.219Z,16.22
2023-05-23T09:29:05.929Z,16.67
2023-05-23T09:31:33.728Z,16.58
2023-05-23T09:34:03.686Z,16.75
2023-05-23T09:36:31.470Z,16.25
2023-05-23T09:39:03.276Z,16.71
2023-05-23T09:41:33.840Z,16.70
2023-05-23T09:44:06.036Z,17.13
2023-05-23T09:46:35.932Z,16.89
2023-05-23T09:49:14.964Z,16.35
2023-05-23T09:51:42.406Z,16.60
2023-05-23T09:54:09.859Z,16.64
2023-05-23T09:56:40.561Z,16.67
2023-05-23T09:59:09.247Z,17.12
2023-05-23T10:01:37.104Z,17.34
2023-05-23T10:04:05.522Z,16.97
2023-05-23T10:06:49.324Z,16.80
2023-05-23T10:09:18.827Z,17.34
2023-05-23T10:12:45.132Z,17.85
2023-05-23T10:15:15.048Z,17.73
2023-05-23T10:18:05.932Z,17.94
2023-05-23T10:20:36.078Z,18.22
2023-05-23T10:23:03.414Z,18.08
2023-05-23T10:25:30.886Z,17.80
2023-05-23T10:28:02.339Z,18.01
2023-05-23T10:30:34.342Z,18.33
2023-05-23T10:33:03.187Z,18.27
2023-05-23T10:35:42.478Z,17.84
2023-05-23T10:38:21.905Z,18.41
2023-05-23T10:40:55.121Z,18.21
2023-05-23T10:43:29.877Z,18.82
2023-05-23T10:45:57.291Z,18.68
2023-05-23T10:48:33.293Z,19.07
2023-05-23T10:51:05.089Z,19.24
2023-05-23T10:53:34.406Z,18.83
2023-05-23T10:56:04.348Z,18.58
2023-05-23T10:58:34.196Z,18.77
2023-05-23T11:01:04.815Z,18.54
2023-05-23T11:03:34.112Z,18.60
2023-05-23T11:06:02.041Z,19.63
2023-05-23T11:08:46.922Z,19.24
2023-05-23T11:11:16.085Z,19.04
2023-05-23T11:13:58.950Z,18.66
2023-05-23T11:16:31.302Z,18.79
2023-05-23T11:19:24.263Z,18.22
2023-05-23T11:21:54.333Z,18.34
2023-05-23T11:24:22.270Z,18.59
2023-05-23T11:26:54.062Z,18.69
2023-05-23T11:29:22.930Z,19.09
2023-05-23T11:31:50.198Z,18.57
2023-05-23T11:34:18.371Z,18.57
2023-05-23T11:36:45.815Z,18.39
2023-05-23T11:39:13.996Z,18.34
2023-05-23T11:41:42.091Z,18.10
2023-05-23T11:44:12.618Z,18.56
2023-05-23T11:46:41.348Z,19.01
2023-05-23T11:49:12.094Z,19.42
2023-05-23T11:51:39.469Z,18.82
2023-05-23T11:54:06.805Z,19.16
2023-05-23T11:56:40.020Z,19.69
2023-05-23T11:59:07.343Z,20.24
2023-05-23T12:01:37.267Z,19.66
2023-05-23T12:04:14.061Z,20.08
2023-05-23T12:06:41.900Z,19.48
2023-05-23T12:09:11.828Z,21.41
2023-05-23T12:11:40.607Z,20.98
2023-05-23T12:14:07.999Z,20.86
2023-05-23T12:16:36.110Z,20.55
2023-05-23T12:19:05.454Z,19.59
2023-05-23T12:21:47.396Z,19.41
2023-05-23T12:24:15.862Z,19.62
2023-05-23T12:26:50.017Z,20.75
2023-05-23T12:29:19.338Z,21.47
2023-05-23T12:31:49.343Z,21.11
2023-05-23T12:34:16.998Z,19.89
2023-05-23T12:36:49.448Z,19.23
2023-05-23T12:39:24.908Z,19.26
2023-05-23T12:41:52.222Z,21.08
2023-05-23T12:44:19.475Z,21.67
2023-05-23T12:46:46.876Z,20.39
2023-05-23T12:49:14.274Z,20.42
2023-05-23T12:51:41.665Z,20.78
2023-05-23T12:54:10.286Z,21.40
2023-05-23T12:56:38.046Z,20.38
2023-05-23T12:59:05.383Z,22.03
2023-05-23T13:01:32.792Z,22.21
2023-05-23T13:04:00.183Z,21.79
2023-05-23T13:06:27.858Z,20.63
2023-05-23T13:08:55.170Z,22.57
2023-05-23T13:11:24.251Z,19.55
2023-05-23T13:13:51.535Z,20.46
2023-05-23T13:16:19.081Z,21.63
2023-05-23T13:18:46.522Z,21.09
2023-05-23T13:21:13.920Z,20.52
2023-05-23T13:23:41.288Z,20.06
2023-05-23T13:26:08.689Z,19.35
2023-05-23T13:28:37.307Z,20.58
2023-05-23T13:31:05.533Z,20.35
2023-05-23T13:33:32.907Z,20.89
2023-05-23T13:36:00.298Z,21.60
2023-05-23T13:38:27.595Z,19.68
2023-05-23T13:40:55.131Z,19.66
2023-05-23T13:43:22.413Z,19.57
2023-05-23T13:45:51.089Z,19.66
2023-05-23T13:48:18.400Z,21.43
2023-05-23T13:50:46.112Z,19.89
2023-05-23T13:53:13.458Z,20.16
2023-05-23T13:55:41.133Z,19.01
2023-05-23T13:58:08.481Z,19.20
2023-05-23T14:00:35.830Z,19.68
2023-05-23T14:03:04.649Z,19.81
2023-05-23T14:05:32.081Z,19.89
2023-05-23T14:07:59.379Z,21.02
2023-05-23T14:10:26.976Z,22.82
2023-05-23T14:12:54.410Z,23.19
2023-05-23T14:15:21.873Z,22.63
2023-05-23T14:17:49.328Z,21.56
2023-05-23T14:20:18.094Z,22.81
2023-05-23T14:22:45.360Z,22.82
2023-05-23T14:25:12.943Z,21.75
2023-05-23T14:27:40.214Z,21.93
2023-05-23T14:32:35.260Z,20.01
2023-05-23T14:35:02.644Z,19.99
2023-05-23T14:37:31.270Z,20.73
2023-05-23T14:39:58.644Z,22.95
2023-05-23T14:42:25.873Z,23.15
2023-05-23T14:44:53.786Z,22.64
2023-05-23T14:47:21.374Z,20.99
2023-05-23T14:49:48.689Z,21.60
2023-05-23T14:52:17.249Z,22.21
2023-05-23T14:54:46.031Z,21.60
2023-05-23T14:57:13.331Z,20.66
2023-05-23T14:59:41.048Z,20.17
2023-05-23T15:02:08.738Z,20.60
2023-05-23T15:04:36.934Z,20.74
2023-05-23T15:07:04.381Z,20.64
2023-05-23T15:09:31.725Z,21.09
2023-05-23T15:12:00.454Z,21.51
2023-05-23T15:14:27.723Z,22.21
2023-05-23T15:16:55.399Z,22.11
2023-05-23T15:19:22.811Z,22.21
2023-05-23T15:21:51.781Z,23.67
2023-05-23T15:24:19.490Z,22.62
2023-05-23T15:26:46.746Z,21.05
2023-05-23T15:29:15.508Z,20.57
2023-05-23T15:31:42.837Z,21.41
2023-05-23T15:34:10.464Z,21.22
2023-05-23T15:36:39.688Z,20.31
2023-05-23T15:39:07.113Z,19.95
2023-05-23T15:41:34.412Z,19.80
2023-05-23T15:44:01.869Z,18.88
2023-05-23T15:46:33.557Z,19.82
2023-05-23T15:49:07.491Z,19.84
2023-05-23T15:51:41.230Z,20.32
2023-05-23T15:54:08.508Z,20.66
2023-05-23T15:56:36.124Z,21.82
2023-05-23T15:59:03.532Z,21.36
2023-05-23T16:01:30.885Z,20.83
2023-05-23T16:03:59.667Z,21.82
2023-05-23T16:06:27.081Z,21.06
2023-05-23T16:08:54.410Z,19.72
2023-05-23T16:11:21.933Z,19.36
2023-05-23T16:13:49.310Z,19.93
2023-05-23T16:16:17.275Z,21.53
2023-05-23T16:18:44.744Z,20.61
2023-05-23T16:21:13.457Z,22.00
2023-05-23T16:23:40.666Z,21.62
2023-05-23T16:26:07.963Z,20.92
2023-05-23T16:28:35.358Z,21.46
2023-05-23T16:31:03.192Z,22.07
2023-05-23T16:33:30.413Z,21.07
2023-05-23T16:35:57.714Z,21.14
2023-05-23T16:38:26.319Z,19.72
2023-05-23T16:40:53.929Z,19.99
2023-05-23T16:43:21.285Z,21.31
2023-05-23T16:45:48.812Z,20.78
2023-05-23T16:48:17.201Z,19.34
2023-05-23T16:50:44.694Z,19.33
2023-05-23T16:53:12.186Z,19.91
2023-05-23T16:55:41.326Z,20.08
2023-05-23T16:58:08.899Z,19.55
2023-05-23T17:00:36.686Z,20.68
2023-05-23T17:03:04.598Z,20.30
2023-05-23T17:05:33.054Z,21.52
2023-05-23T17:08:01.430Z,19.60
2023-05-23T17:10:28.837Z,18.38
2023-05-23T17:12:57.591Z,18.12
2023-05-23T17:15:25.600Z,17.77
2023-05-23T17:17:53.195Z,18.16
2023-05-23T17:20:20.713Z,17.89
2023-05-23T17:22:48.093Z,17.78
2023-05-23T17:25:15.556Z,17.51
2023-05-23T17:27:43.061Z,17.23
2023-05-23T17:30:13.084Z,17.78
2023-05-23T17:32:40.477Z,17.99
2023-05-23T17:35:08.635Z,17.89
2023-05-23T17:37:36.406Z,18.29
2023-05-23T17:40:04.620Z,17.48
2023-05-23T17:42:32.200Z,18.16
2023-05-23T17:45:00.484Z,17.95
2023-05-23T17:47:29.429Z,17.57
2023-05-23T17:49:56.748Z,17.49
2023-05-23T17:52:24.175Z,17.11
2023-05-23T17:54:51.500Z,16.87
2023-05-23T17:57:18.843Z,17.03
2023-05-23T17:59:46.263Z,17.35
2023-05-23T18:02:14.042Z,18.10
2023-05-23T18:04:43.089Z,18.78
2023-05-23T18:07:12.257Z,18.22
2023-05-23T18:09:39.583Z,17.82
2023-05-23T18:12:07.170Z,18.43
2023-05-23T18:14:35.448Z,17.69
2023-05-23T18:17:02.882Z,17.21
2023-05-23T18:19:30.360Z,17.13
2023-05-23T18:21:59.041Z,17.21
2023-05-23T18:24:26.423Z,17.08
2023-05-23T18:26:53.765Z,16.88
2023-05-23T18:29:21.326Z,16.85
2023-05-23T18:31:48.652Z,16.26
2023-05-23T18:34:16.130Z,16.35
2023-05-23T18:36:43.646Z,16.87
2023-05-23T18:39:12.355Z,16.30
2023-05-23T18:41:39.901Z,16.46
2023-05-23T18:44:07.275Z,16.05
2023-05-23T18:46:34.688Z,16.48
2023-05-23T18:49:02.133Z,16.12
2023-05-23T18:51:29.462Z,16.43
2023-05-23T18:53:58.342Z,16.51
2023-05-23T18:56:27.053Z,16.33
2023-05-23T18:58:54.422Z,16.97
2023-05-23T19:01:21.888Z,16.19
2023-05-23T19:03:49.462Z,16.25
2023-05-23T19:06:16.846Z,15.88
2023-05-23T19:08:44.168Z,15.62
2023-05-23T19:11:11.520Z,15.73
2023-05-23T19:13:40.512Z,15.38
2023-05-23T19:16:07.851Z,15.40
2023-05-23T19:18:35.465Z,15.30
2023-05-23T19:21:03.485Z,15.09
2023-05-23T19:23:30.885Z,15.18
2023-05-23T19:25:58.198Z,15.45
2023-05-23T19:28:25.619Z,15.22
2023-05-23T19:30:56.892Z,14.77
2023-05-23T19:33:24.497Z,15.31
2023-05-23T19:35:51.704Z,15.20
2023-05-23T19:38:19.215Z,14.83
2023-05-23T19:40:46.825Z,14.63
2023-05-23T19:43:14.314Z,14.70
2023-05-23T19:45:41.887Z,14.47
2023-05-23T19:48:10.745Z,14.77
2023-05-23T19:50:38.139Z,14.84
2023-05-23T19:53:05.580Z,14.64
2023-05-23T19:55:33.023Z,14.61
2023-05-23T19:58:00.356Z,14.85
2023-05-23T20:00:27.714Z,14.82
2023-05-23T20:02:56.100Z,14.46
2023-05-23T20:05:24.782Z,14.57
2023-05-23T20:07:52.243Z,14.56
2023-05-23T20:10:19.744Z,14.20
2023-05-23T20:12:47.040Z,14.15
2023-05-23T20:15:15.916Z,14.33
2023-05-23T20:17:45.419Z,14.53
2023-05-23T20:20:12.789Z,14.14
2023-05-23T20:22:41.561Z,14.31
2023-05-23T20:25:09.294Z,14.18
2023-05-23T20:27:36.768Z,14.12
2023-05-23T20:30:06.263Z,14.30
2023-05-23T20:32:33.612Z,14.13
2023-05-23T20:35:00.875Z,14.43
2023-05-23T20:37:28.263Z,14.17
2023-05-23T20:39:56.926Z,14.23
2023-05-23T20:42:24.286Z,13.90
2023-05-23T20:44:51.526Z,14.10
2023-05-23T20:47:19.094Z,13.98
2023-05-23T20:49:46.395Z,14.16
2023-05-23T20:52:15.048Z,13.98
2023-05-23T20:54:42.381Z,13.98
2023-05-23T20:57:13.910Z,14.15
2023-05-23T20:59:41.318Z,14.10
2023-05-23T21:02:09.267Z,14.22
2023-05-23T21:04:36.703Z,14.12
2023-05-23T21:07:04.425Z,14.27
2023-05-23T21:09:31.704Z,14.41
2023-05-23T21:12:08.962Z,14.51
2023-05-23T21:14:37.691Z,14.11
2023-05-23T21:17:05.014Z,14.28
2023-05-23T21:19:32.561Z,14.42
2023-05-23T21:22:00.029Z,14.63
2023-05-23T21:24:27.420Z,14.06
2023-05-23T21:26:54.671Z,14.38
2023-05-23T21:29:22.040Z,14.37
2023-05-23T21:31:50.811Z,14.06
2023-05-23T21:34:23.908Z,13.88
2023-05-23T21:36:51.975Z,14.19
2023-05-23T21:39:19.600Z,13.90
2023-05-23T21:41:47.220Z,13.82
2023-05-23T21:44:14.656Z,13.64
2023-05-23T21:46:41.985Z,13.68
2023-05-23T21:49:10.674Z,13.83
2023-05-23T21:51:38.078Z,13.87
2023-05-23T21:54:05.845Z,13.88
2023-05-23T21:56:33.186Z,13.79
2023-05-23T21:59:00.447Z,13.60
2023-05-23T22:01:27.868Z,13.43
2023-05-23T22:03:55.250Z,13.49
2023-05-23T22:06:24.083Z,13.58
2023-05-23T22:08:51.375Z,13.36
2023-05-23T22:11:19.060Z,13.33
2023-05-23T22:13:46.348Z,13.35
2023-05-23T22:16:13.756Z,13.30
2023-05-23T22:18:51.025Z,13.35
2023-05-23T22:21:19.792Z,13.32
2023-05-23T22:23:48.545Z,13.21
2023-05-23T22:26:15.998Z,13.34
2023-05-23T22:28:43.371Z,13.36
2023-05-23T22:31:12.892Z,13.37
2023-05-23T22:33:41.003Z,13.37
2023-05-23T22:36:09.176Z,13.51
2023-05-23T22:38:36.564Z,13.32
2023-05-23T22:41:05.298Z,13.38
2023-05-23T22:43:32.708Z,13.10
2023-05-23T22:46:00.182Z,13.18
2023-05-23T22:48:27.459Z,13.32
2023-05-23T22:50:54.825Z,13.56
2023-05-23T22:53:22.104Z,13.45
2023-05-23T22:55:49.864Z,13.52
2023-05-23T22:58:18.552Z,13.39
2023-05-23T23:00:45.952Z,13.30
2023-05-23T23:03:13.626Z,13.62
2023-05-23T23:05:41.168Z,13.50
2023-05-23T23:08:08.408Z,13.45
2023-05-23T23:10:35.816Z,13.53
2023-05-23T23:13:03.226Z,13.12
2023-05-23T23:15:31.962Z,13.30
2023-05-23T23:17:59.694Z,13.08
2023-05-23T23:20:27.309Z,12.97
2023-05-23T23:22:54.790Z,12.93
2023-05-23T23:25:22.323Z,13.18
2023-05-23T23:27:49.711Z,13.01
2023-05-23T23:30:17.473Z,13.21
2023-05-23T23:32:46.118Z,12.91
2023-05-23T23:35:13.748Z,12.67
2023-05-23T23:37:41.062Z,12.74
2023-05-23T23:40:09.337Z,12.59
2023-05-23T23:42:36.892Z,12.96
2023-05-23T23:45:05.128Z,12.59
2023-05-23T23:47:32.681Z,13.04
2023-05-23T23:50:01.563Z,12.91
2023-05-23T23:52:28.957Z,12.66
2023-05-23T23:54:56.503Z,12.55
2023-05-23T23:57:27.515Z,12.74
2023-05-23T23:59:55.002Z,12.66
